sensor_id;sensor_type;location;lat;lon;timestamp;pressure;altitude;pressure_sealevel;temperature;humidity
10115;BME280;5097;43.260;27.812;2023-04-12T00:02:16;98689.56;;;8.62;100.00
10115;BME280;5097;43.260;27.812;2023-04-12T00:05:00;98695.56;;;8.51;100.00
10115;BME280;5097;43.260;27.812;2023-04-12T00:07:44;98693.78;;;8.64;100.00
10115;BME280;5097;43.260;27.812;2023-04-12T00:10:30;98697.75;;;8.57;100.00
10115;BME280;5097;43.260;27.812;2023-04-12T00:13:14;98685.97;;;8.50;100.00
10115;BME280;5097;43.260;27.812;2023-04-12T00:15:58;98681.88;;;8.59;100.00
10115;BME280;5097;43.260;27.812;2023-04-12T00:18:42;98690.81;;;8.82;100.00
10115;BME280;5097;43.260;27.812;2023-04-12T00:21:27;98692.16;;;8.75;100.00
10115;BME280;5097;43.260;27.812;2023-04-12T00:24:11;98686.13;;;8.34;100.00
10115;BME280;5097;43.260;27.812;2023-04-12T00:26:56;98695.06;;;8.31;100.00
10115;BME280;5097;43.260;27.812;2023-04-12T00:29:43;98694.84;;;8.34;100.00
10115;BME280;5097;43.260;27.812;2023-04-12T00:32:27;98695.28;;;8.28;100.00
10115;BME280;5097;43.260;27.812;2023-04-12T00:35:11;98700.47;;;8.43;100.00
10115;BME280;5097;43.260;27.812;2023-04-12T00:37:55;98688.97;;;8.31;100.00
10115;BME280;5097;43.260;27.812;2023-04-12T00:40:40;98692.75;;;8.39;100.00
10115;BME280;5097;43.260;27.812;2023-04-12T00:43:26;98662.63;;;8.05;100.00
10115;BME280;5097;43.260;27.812;2023-04-12T00:46:10;98671.94;;;7.96;100.00
10115;BME280;5097;43.260;27.812;2023-04-12T00:48:56;98686.72;;;8.12;100.00
10115;BME280;5097;43.260;27.812;2023-04-12T00:51:40;98697.97;;;8.14;100.00
10115;BME280;5097;43.260;27.812;2023-04-12T00:54:25;98668.44;;;7.83;100.00
10115;BME280;5097;43.260;27.812;2023-04-12T00:57:09;98682.19;;;8.14;100.00
10115;BME280;5097;43.260;27.812;2023-04-12T00:59:54;98666.38;;;8.01;100.00
10115;BME280;5097;43.260;27.812;2023-04-12T01:02:39;98698.91;;;8.13;100.00
10115;BME280;5097;43.260;27.812;2023-04-12T01:05:24;98687.06;;;8.20;100.00
10115;BME280;5097;43.260;27.812;2023-04-12T01:08:17;98667.56;;;8.10;100.00
10115;BME280;5097;43.260;27.812;2023-04-12T01:11:06;98683.78;;;8.16;100.00
10115;BME280;5097;43.260;27.812;2023-04-12T01:13:57;98689.03;;;8.16;100.00
10115;BME280;5097;43.260;27.812;2023-04-12T01:16:46;98677.47;;;8.19;100.00
10115;BME280;5097;43.260;27.812;2023-04-12T01:19:51;98674.63;;;8.22;100.00
10115;BME280;5097;43.260;27.812;2023-04-12T01:23:00;98680.81;;;8.08;100.00
10115;BME280;5097;43.260;27.812;2023-04-12T01:26:04;98668.63;;;7.80;100.00
10115;BME280;5097;43.260;27.812;2023-04-12T01:28:53;98653.38;;;7.85;100.00
10115;BME280;5097;43.260;27.812;2023-04-12T01:31:40;98666.78;;;8.08;100.00
10115;BME280;5097;43.260;27.812;2023-04-12T01:34:27;98662.06;;;8.00;100.00
10115;BME280;5097;43.260;27.812;2023-04-12T01:37:13;98645.97;;;8.04;100.00
10115;BME280;5097;43.260;27.812;2023-04-12T01:40:01;98674.66;;;8.35;100.00
10115;BME280;5097;43.260;27.812;2023-04-12T01:42:47;98642.00;;;8.25;100.00
10115;BME280;5097;43.260;27.812;2023-04-12T01:45:33;98637.88;;;8.08;100.00
10115;BME280;5097;43.260;27.812;2023-04-12T01:48:18;98644.72;;;8.10;100.00
10115;BME280;5097;43.260;27.812;2023-04-12T01:51:04;98650.50;;;8.15;100.00
10115;BME280;5097;43.260;27.812;2023-04-12T01:53:54;98674.91;;;8.70;100.00
10115;BME280;5097;43.260;27.812;2023-04-12T01:56:43;98644.06;;;8.47;100.00
10115;BME280;5097;43.260;27.812;2023-04-12T01:59:31;98675.75;;;8.84;100.00
10115;BME280;5097;43.260;27.812;2023-04-12T02:02:19;98666.28;;;8.68;100.00
10115;BME280;5097;43.260;27.812;2023-04-12T02:05:05;98649.06;;;8.37;100.00
10115;BME280;5097;43.260;27.812;2023-04-12T02:07:51;98656.16;;;8.62;100.00
10115;BME280;5097;43.260;27.812;2023-04-12T02:10:35;98665.84;;;8.87;100.00
10115;BME280;5097;43.260;27.812;2023-04-12T02:13:21;98684.50;;;8.84;100.00
10115;BME280;5097;43.260;27.812;2023-04-12T02:16:07;98654.47;;;8.61;100.00
10115;BME280;5097;43.260;27.812;2023-04-12T02:18:54;98662.91;;;8.66;100.00
10115;BME280;5097;43.260;27.812;2023-04-12T02:21:39;98671.88;;;8.77;100.00
10115;BME280;5097;43.260;27.812;2023-04-12T02:24:24;98668.78;;;8.57;100.00
10115;BME280;5097;43.260;27.812;2023-04-12T02:27:08;98660.84;;;8.31;100.00
10115;BME280;5097;43.260;27.812;2023-04-12T02:29:53;98657.38;;;8.44;100.00
10115;BME280;5097;43.260;27.812;2023-04-12T02:32:37;98648.13;;;8.25;100.00
10115;BME280;5097;43.260;27.812;2023-04-12T02:35:35;98684.19;;;8.63;100.00
10115;BME280;5097;43.260;27.812;2023-04-12T02:38:23;98650.66;;;8.39;100.00
10115;BME280;5097;43.260;27.812;2023-04-12T02:41:08;98681.63;;;8.75;100.00
10115;BME280;5097;43.260;27.812;2023-04-12T02:43:52;98665.66;;;8.52;100.00
10115;BME280;5097;43.260;27.812;2023-04-12T02:46:37;98660.56;;;8.36;100.00
10115;BME280;5097;43.260;27.812;2023-04-12T02:49:21;98686.59;;;8.79;100.00
10115;BME280;5097;43.260;27.812;2023-04-12T02:52:08;98684.41;;;8.86;100.00
10115;BME280;5097;43.260;27.812;2023-04-12T02:55:09;98644.53;;;8.26;100.00
10115;BME280;5097;43.260;27.812;2023-04-12T02:57:53;98648.91;;;8.53;100.00
10115;BME280;5097;43.260;27.812;2023-04-12T03:00:39;98680.19;;;8.58;100.00
10115;BME280;5097;43.260;27.812;2023-04-12T03:03:28;98646.59;;;8.48;100.00
10115;BME280;5097;43.260;27.812;2023-04-12T03:06:21;98651.44;;;8.14;100.00
10115;BME280;5097;43.260;27.812;2023-04-12T03:09:07;98681.63;;;8.49;100.00
10115;BME280;5097;43.260;27.812;2023-04-12T03:11:52;98656.06;;;8.64;100.00
10115;BME280;5097;43.260;27.812;2023-04-12T03:14:36;98653.44;;;8.51;100.00
10115;BME280;5097;43.260;27.812;2023-04-12T03:17:22;98678.91;;;8.50;100.00
10115;BME280;5097;43.260;27.812;2023-04-12T03:20:09;98675.31;;;8.51;100.00
10115;BME280;5097;43.260;27.812;2023-04-12T03:22:59;98683.13;;;8.53;100.00
10115;BME280;5097;43.260;27.812;2023-04-12T03:25:47;98688.81;;;8.72;100.00
10115;BME280;5097;43.260;27.812;2023-04-12T03:28:44;98658.72;;;8.51;100.00
10115;BME280;5097;43.260;27.812;2023-04-12T03:31:28;98687.66;;;8.64;100.00
10115;BME280;5097;43.260;27.812;2023-04-12T03:34:18;98698.09;;;8.65;100.00
10115;BME280;5097;43.260;27.812;2023-04-12T03:37:06;98664.81;;;8.11;100.00
10115;BME280;5097;43.260;27.812;2023-04-12T03:39:53;98666.78;;;8.48;100.00
10115;BME280;5097;43.260;27.812;2023-04-12T03:42:41;98710.41;;;8.65;100.00
10115;BME280;5097;43.260;27.812;2023-04-12T03:45:27;98677.34;;;8.61;100.00
10115;BME280;5097;43.260;27.812;2023-04-12T03:48:13;98715.72;;;8.37;100.00
10115;BME280;5097;43.260;27.812;2023-04-12T03:50:58;98685.97;;;8.50;100.00
10115;BME280;5097;43.260;27.812;2023-04-12T03:53:53;98684.22;;;8.23;100.00
10115;BME280;5097;43.260;27.812;2023-04-12T03:56:38;98639.88;;;8.17;100.00
10115;BME280;5097;43.260;27.812;2023-04-12T03:59:30;98670.06;;;8.51;100.00
10115;BME280;5097;43.260;27.812;2023-04-12T04:02:15;98695.66;;;8.62;100.00
10115;BME280;5097;43.260;27.812;2023-04-12T04:05:03;98689.66;;;8.60;100.00
10115;BME280;5097;43.260;27.812;2023-04-12T04:07:47;98676.81;;;8.55;100.00
10115;BME280;5097;43.260;27.812;2023-04-12T04:10:32;98692.16;;;8.49;100.00
10115;BME280;5097;43.260;27.812;2023-04-12T04:13:16;98677.06;;;8.25;100.00
10115;BME280;5097;43.260;27.812;2023-04-12T04:16:04;98706.94;;;8.64;100.00
10115;BME280;5097;43.260;27.812;2023-04-12T04:18:48;98732.81;;;8.70;100.00
10115;BME280;5097;43.260;27.812;2023-04-12T04:21:35;98722.50;;;8.67;100.00
10115;BME280;5097;43.260;27.812;2023-04-12T04:24:19;98724.53;;;8.77;100.00
10115;BME280;5097;43.260;27.812;2023-04-12T04:27:07;98688.72;;;8.74;100.00
10115;BME280;5097;43.260;27.812;2023-04-12T04:29:51;98681.34;;;8.79;100.00
10115;BME280;5097;43.260;27.812;2023-04-12T04:32:37;98686.06;;;9.13;100.00
10115;BME280;5097;43.260;27.812;2023-04-12T04:35:21;98683.28;;;9.27;100.00
10115;BME280;5097;43.260;27.812;2023-04-12T04:38:23;98720.88;;;9.42;100.00
10115;BME280;5097;43.260;27.812;2023-04-12T04:41:15;98730.00;;;9.62;100.00
10115;BME280;5097;43.260;27.812;2023-04-12T04:44:13;98708.66;;;9.41;100.00
10115;BME280;5097;43.260;27.812;2023-04-12T04:47:06;98684.81;;;9.43;100.00
10115;BME280;5097;43.260;27.812;2023-04-12T04:49:51;98681.88;;;9.34;100.00
10115;BME280;5097;43.260;27.812;2023-04-12T04:52:40;98707.66;;;9.55;100.00
10115;BME280;5097;43.260;27.812;2023-04-12T04:55:28;98730.53;;;9.04;100.00
10115;BME280;5097;43.260;27.812;2023-04-12T04:58:13;98693.00;;;9.14;100.00
10115;BME280;5097;43.260;27.812;2023-04-12T05:00:59;98698.81;;;9.06;100.00
10115;BME280;5097;43.260;27.812;2023-04-12T05:03:45;98722.50;;;8.93;100.00
10115;BME280;5097;43.260;27.812;2023-04-12T05:06:35;98724.00;;;9.10;100.00
10115;BME280;5097;43.260;27.812;2023-04-12T05:09:21;98721.78;;;9.04;100.00
10115;BME280;5097;43.260;27.812;2023-04-12T05:12:10;98732.97;;;8.82;100.00
10115;BME280;5097;43.260;27.812;2023-04-12T05:14:58;98732.44;;;8.89;100.00
10115;BME280;5097;43.260;27.812;2023-04-12T05:17:45;98693.53;;;9.19;100.00
10115;BME280;5097;43.260;27.812;2023-04-12T05:20:29;98716.31;;;9.57;100.00
10115;BME280;5097;43.260;27.812;2023-04-12T05:23:15;98714.19;;;9.62;100.00
10115;BME280;5097;43.260;27.812;2023-04-12T05:25:59;98723.28;;;9.58;100.00
10115;BME280;5097;43.260;27.812;2023-04-12T05:28:43;98719.53;;;9.36;100.00
10115;BME280;5097;43.260;27.812;2023-04-12T05:31:28;98732.56;;;9.51;100.00
10115;BME280;5097;43.260;27.812;2023-04-12T05:34:16;98718.94;;;9.07;100.00
10115;BME280;5097;43.260;27.812;2023-04-12T05:37:08;98725.25;;;9.04;100.00
10115;BME280;5097;43.260;27.812;2023-04-12T05:39:55;98718.91;;;9.20;100.00
10115;BME280;5097;43.260;27.812;2023-04-12T05:42:38;98722.72;;;9.16;100.00
10115;BME280;5097;43.260;27.812;2023-04-12T05:45:23;98718.50;;;9.26;100.00
10115;BME280;5097;43.260;27.812;2023-04-12T05:48:07;98730.09;;;9.23;100.00
10115;BME280;5097;43.260;27.812;2023-04-12T05:50:52;98719.69;;;9.59;100.00
10115;BME280;5097;43.260;27.812;2023-04-12T05:53:37;98734.47;;;9.49;99.49
10115;BME280;5097;43.260;27.812;2023-04-12T05:56:23;98704.19;;;9.54;100.00
10115;BME280;5097;43.260;27.812;2023-04-12T05:59:07;98714.41;;;9.59;100.00
10115;BME280;5097;43.260;27.812;2023-04-12T06:01:53;98712.88;;;10.05;98.00
10115;BME280;5097;43.260;27.812;2023-04-12T06:04:40;98707.75;;;10.15;99.88
10115;BME280;5097;43.260;27.812;2023-04-12T06:07:34;98707.22;;;10.10;98.34
10115;BME280;5097;43.260;27.812;2023-04-12T06:10:18;98715.28;;;9.84;97.14
10115;BME280;5097;43.260;27.812;2023-04-12T06:13:07;98714.97;;;10.24;95.49
10115;BME280;5097;43.260;27.812;2023-04-12T06:15:55;98688.34;;;9.92;96.43
10115;BME280;5097;43.260;27.812;2023-04-12T06:18:39;98724.72;;;9.99;96.11
10115;BME280;5097;43.260;27.812;2023-04-12T06:21:23;98710.19;;;10.53;97.69
10115;BME280;5097;43.260;27.812;2023-04-12T06:24:08;98711.72;;;11.26;94.71
10115;BME280;5097;43.260;27.812;2023-04-12T06:26:52;98718.28;;;10.75;91.24
10115;BME280;5097;43.260;27.812;2023-04-12T06:29:37;98711.09;;;10.99;96.45
10115;BME280;5097;43.260;27.812;2023-04-12T06:32:21;98680.50;;;10.38;94.37
10115;BME280;5097;43.260;27.812;2023-04-12T06:35:07;98720.53;;;10.68;94.60
10115;BME280;5097;43.260;27.812;2023-04-12T06:37:52;98715.53;;;10.40;95.12
10115;BME280;5097;43.260;27.812;2023-04-12T06:40:36;98719.63;;;10.45;94.41
10115;BME280;5097;43.260;27.812;2023-04-12T06:43:20;98736.53;;;10.18;94.10
10115;BME280;5097;43.260;27.812;2023-04-12T06:46:05;98625.16;;;9.90;94.98
10115;BME280;5097;43.260;27.812;2023-04-12T06:48:50;98727.59;;;10.67;95.92
10115;BME280;5097;43.260;27.812;2023-04-12T06:51:34;98740.13;;;10.77;92.87
10115;BME280;5097;43.260;27.812;2023-04-12T06:54:18;98721.69;;;10.17;95.70
10115;BME280;5097;43.260;27.812;2023-04-12T06:57:02;98737.03;;;10.47;96.25
10115;BME280;5097;43.260;27.812;2023-04-12T06:59:46;98743.38;;;10.45;96.05
10115;BME280;5097;43.260;27.812;2023-04-12T07:02:31;98739.56;;;10.49;97.47
10115;BME280;5097;43.260;27.812;2023-04-12T07:05:16;98740.53;;;10.48;100.00
10115;BME280;5097;43.260;27.812;2023-04-12T07:08:00;98710.38;;;10.15;97.13
10115;BME280;5097;43.260;27.812;2023-04-12T07:10:44;98735.84;;;10.27;100.00
10115;BME280;5097;43.260;27.812;2023-04-12T07:13:28;98744.19;;;10.10;99.28
10115;BME280;5097;43.260;27.812;2023-04-12T07:16:12;98723.59;;;9.53;97.86
10115;BME280;5097;43.260;27.812;2023-04-12T07:18:58;98749.28;;;10.00;100.00
10115;BME280;5097;43.260;27.812;2023-04-12T07:21:42;98709.47;;;9.79;99.02
10115;BME280;5097;43.260;27.812;2023-04-12T07:24:26;98749.06;;;10.51;95.94
10115;BME280;5097;43.260;27.812;2023-04-12T07:27:10;98756.59;;;10.92;98.32
10115;BME280;5097;43.260;27.812;2023-04-12T07:29:54;98742.75;;;10.65;97.50
10115;BME280;5097;43.260;27.812;2023-04-12T07:32:40;98753.81;;;10.70;97.66
10115;BME280;5097;43.260;27.812;2023-04-12T07:35:25;98759.47;;;10.77;94.86
10115;BME280;5097;43.260;27.812;2023-04-12T07:38:09;98724.13;;;10.67;95.90
10115;BME280;5097;43.260;27.812;2023-04-12T07:40:54;98757.47;;;11.03;94.58
10115;BME280;5097;43.260;27.812;2023-04-12T07:43:38;98761.81;;;11.27;93.63
10115;BME280;5097;43.260;27.812;2023-04-12T07:46:22;98754.84;;;11.26;94.56
10115;BME280;5097;43.260;27.812;2023-04-12T07:49:06;98741.13;;;10.98;99.00
10115;BME280;5097;43.260;27.812;2023-04-12T07:51:53;98759.66;;;10.63;95.65
10115;BME280;5097;43.260;27.812;2023-04-12T07:54:37;98723.97;;;10.46;100.00
10115;BME280;5097;43.260;27.812;2023-04-12T07:57:21;98757.13;;;11.19;99.87
10115;BME280;5097;43.260;27.812;2023-04-12T08:00:06;98758.56;;;11.57;94.92
10115;BME280;5097;43.260;27.812;2023-04-12T08:02:57;98755.63;;;11.72;96.19
10115;BME280;5097;43.260;27.812;2023-04-12T08:05:41;98727.34;;;11.17;96.83
10115;BME280;5097;43.260;27.812;2023-04-12T08:08:27;98751.25;;;11.16;98.80
10115;BME280;5097;43.260;27.812;2023-04-12T08:11:11;98745.69;;;11.53;99.02
10115;BME280;5097;43.260;27.812;2023-04-12T08:13:55;98757.59;;;11.02;98.67
10115;BME280;5097;43.260;27.812;2023-04-12T08:16:39;98763.72;;;11.14;100.00
10115;BME280;5097;43.260;27.812;2023-04-12T08:19:23;98750.28;;;11.05;100.00
10115;BME280;5097;43.260;27.812;2023-04-12T08:22:07;98728.94;;;10.62;99.75
10115;BME280;5097;43.260;27.812;2023-04-12T08:24:55;98755.56;;;11.17;100.00
10115;BME280;5097;43.260;27.812;2023-04-12T08:27:41;98760.84;;;11.05;100.00
10115;BME280;5097;43.260;27.812;2023-04-12T08:30:25;98757.47;;;10.92;100.00
10115;BME280;5097;43.260;27.812;2023-04-12T08:33:09;98747.66;;;10.59;100.00
10115;BME280;5097;43.260;27.812;2023-04-12T08:35:53;98757.25;;;10.60;100.00
10115;BME280;5097;43.260;27.812;2023-04-12T08:38:38;98756.03;;;11.11;100.00
10115;BME280;5097;43.260;27.812;2023-04-12T08:41:29;98756.91;;;11.22;100.00
10115;BME280;5097;43.260;27.812;2023-04-12T08:44:14;98762.25;;;12.00;100.00
10115;BME280;5097;43.260;27.812;2023-04-12T08:46:58;98747.38;;;10.97;100.00
10115;BME280;5097;43.260;27.812;2023-04-12T08:49:42;98768.06;;;11.37;100.00
10115;BME280;5097;43.260;27.812;2023-04-12T08:52:26;98759.41;;;11.35;100.00
10115;BME280;5097;43.260;27.812;2023-04-12T08:55:10;98751.69;;;11.66;98.91
10115;BME280;5097;43.260;27.812;2023-04-12T08:57:57;98725.06;;;11.24;95.05
10115;BME280;5097;43.260;27.812;2023-04-12T09:00:41;98740.19;;;11.56;99.43
10115;BME280;5097;43.260;27.812;2023-04-12T09:03:26;98760.13;;;11.49;95.00
10115;BME280;5097;43.260;27.812;2023-04-12T09:06:14;98762.28;;;11.21;93.36
10115;BME280;5097;43.260;27.812;2023-04-12T09:08:58;98757.50;;;11.60;97.73
10115;BME280;5097;43.260;27.812;2023-04-12T09:11:43;98768.03;;;10.92;94.08
10115;BME280;5097;43.260;27.812;2023-04-12T09:14:28;98732.72;;;10.22;98.59
10115;BME280;5097;43.260;27.812;2023-04-12T09:17:20;98666.56;;;9.77;100.00
10115;BME280;5097;43.260;27.812;2023-04-12T09:20:32;98765.94;;;10.37;100.00
10115;BME280;5097;43.260;27.812;2023-04-12T09:23:18;98771.03;;;10.03;100.00
10115;BME280;5097;43.260;27.812;2023-04-12T09:26:03;98774.59;;;10.39;100.00
10115;BME280;5097;43.260;27.812;2023-04-12T09:28:48;98780.22;;;10.22;100.00
10115;BME280;5097;43.260;27.812;2023-04-12T09:31:33;98789.56;;;9.78;100.00
10115;BME280;5097;43.260;27.812;2023-04-12T09:34:17;98760.28;;;9.94;100.00
10115;BME280;5097;43.260;27.812;2023-04-12T09:37:11;98757.19;;;9.76;100.00
10115;BME280;5097;43.260;27.812;2023-04-12T09:39:59;98768.78;;;9.86;100.00
10115;BME280;5097;43.260;27.812;2023-04-12T09:42:51;98776.44;;;10.26;100.00
10115;BME280;5097;43.260;27.812;2023-04-12T09:45:36;98755.25;;;9.78;100.00
10115;BME280;5097;43.260;27.812;2023-04-12T09:48:23;98748.75;;;9.70;100.00
10115;BME280;5097;43.260;27.812;2023-04-12T09:51:08;98734.88;;;9.55;100.00
10115;BME280;5097;43.260;27.812;2023-04-12T09:53:57;98791.66;;;10.10;100.00
10115;BME280;5097;43.260;27.812;2023-04-12T09:56:42;98783.47;;;10.01;100.00
10115;BME280;5097;43.260;27.812;2023-04-12T09:59:27;98787.34;;;10.09;100.00
10115;BME280;5097;43.260;27.812;2023-04-12T10:02:14;98779.59;;;9.57;100.00
10115;BME280;5097;43.260;27.812;2023-04-12T10:05:01;98777.22;;;9.78;100.00
10115;BME280;5097;43.260;27.812;2023-04-12T10:07:46;98775.75;;;9.74;100.00
10115;BME280;5097;43.260;27.812;2023-04-12T10:10:30;98788.19;;;9.85;100.00
10115;BME280;5097;43.260;27.812;2023-04-12T10:13:14;98751.03;;;9.88;99.78
10115;BME280;5097;43.260;27.812;2023-04-12T10:16:03;98758.72;;;10.15;100.00
10115;BME280;5097;43.260;27.812;2023-04-12T10:18:48;98785.44;;;10.59;97.62
10115;BME280;5097;43.260;27.812;2023-04-12T10:21:35;98777.31;;;10.14;99.18
10115;BME280;5097;43.260;27.812;2023-04-12T10:24:20;98766.22;;;9.84;96.26
10115;BME280;5097;43.260;27.812;2023-04-12T10:27:05;98764.25;;;10.36;97.54
10115;BME280;5097;43.260;27.812;2023-04-12T10:29:49;98779.47;;;10.57;99.05
10115;BME280;5097;43.260;27.812;2023-04-12T10:32:33;98800.97;;;10.64;98.80
10115;BME280;5097;43.260;27.812;2023-04-12T10:35:17;98801.34;;;10.70;100.00
10115;BME280;5097;43.260;27.812;2023-04-12T10:38:03;98803.34;;;10.55;100.00
10115;BME280;5097;43.260;27.812;2023-04-12T10:41:17;98801.31;;;10.35;100.00
10115;BME280;5097;43.260;27.812;2023-04-12T10:44:22;98794.69;;;9.92;100.00
10115;BME280;5097;43.260;27.812;2023-04-12T10:47:07;98793.94;;;9.40;100.00
10115;BME280;5097;43.260;27.812;2023-04-12T10:50:19;98803.78;;;9.75;100.00
10115;BME280;5097;43.260;27.812;2023-04-12T10:53:23;98806.38;;;9.25;100.00
10115;BME280;5097;43.260;27.812;2023-04-12T10:56:34;98825.38;;;9.30;100.00
10115;BME280;5097;43.260;27.812;2023-04-12T10:59:19;98785.50;;;9.61;100.00
10115;BME280;5097;43.260;27.812;2023-04-12T11:02:10;98802.16;;;10.35;100.00
10115;BME280;5097;43.260;27.812;2023-04-12T11:05:05;98779.53;;;10.31;99.05
10115;BME280;5097;43.260;27.812;2023-04-12T11:08:11;98795.72;;;10.27;97.08
10115;BME280;5097;43.260;27.812;2023-04-12T11:11:18;98808.50;;;10.57;96.86
10115;BME280;5097;43.260;27.812;2023-04-12T11:14:04;98804.63;;;10.50;94.47
10115;BME280;5097;43.260;27.812;2023-04-12T11:17:22;98793.19;;;10.73;92.15
10115;BME280;5097;43.260;27.812;2023-04-12T11:20:10;98769.97;;;11.13;94.96
10115;BME280;5097;43.260;27.812;2023-04-12T11:22:54;98807.00;;;10.77;92.75
10115;BME280;5097;43.260;27.812;2023-04-12T11:25:39;98795.25;;;10.81;93.03
10115;BME280;5097;43.260;27.812;2023-04-12T11:28:25;98798.56;;;10.36;96.01
10115;BME280;5097;43.260;27.812;2023-04-12T11:31:12;98784.69;;;10.46;97.38
10115;BME280;5097;43.260;27.812;2023-04-12T11:33:58;98802.69;;;10.03;95.04
10115;BME280;5097;43.260;27.812;2023-04-12T11:36:43;98796.94;;;10.47;96.33
10115;BME280;5097;43.260;27.812;2023-04-12T11:39:27;98800.78;;;10.54;94.93
10115;BME280;5097;43.260;27.812;2023-04-12T11:42:15;98806.31;;;10.51;93.97
10115;BME280;5097;43.260;27.812;2023-04-12T11:45:01;98818.84;;;10.36;92.44
10115;BME280;5097;43.260;27.812;2023-04-12T11:47:56;98779.47;;;10.57;96.04
10115;BME280;5097;43.260;27.812;2023-04-12T11:50:40;98791.88;;;10.44;90.30
10115;BME280;5097;43.260;27.812;2023-04-12T11:53:26;98795.38;;;10.80;91.86
10115;BME280;5097;43.260;27.812;2023-04-12T11:56:10;98787.72;;;10.99;91.27
10115;BME280;5097;43.260;27.812;2023-04-12T11:58:54;98795.81;;;10.73;92.58
10115;BME280;5097;43.260;27.812;2023-04-12T12:01:40;98798.66;;;10.59;89.79
10115;BME280;5097;43.260;27.812;2023-04-12T12:04:24;98776.28;;;10.87;89.39
10115;BME280;5097;43.260;27.812;2023-04-12T12:07:10;98801.63;;;10.90;86.38
10115;BME280;5097;43.260;27.812;2023-04-12T12:09:54;98819.22;;;11.14;89.37
10115;BME280;5097;43.260;27.812;2023-04-12T12:12:38;98803.88;;;11.30;89.36
10115;BME280;5097;43.260;27.812;2023-04-12T12:15:28;98809.41;;;11.72;90.51
10115;BME280;5097;43.260;27.812;2023-04-12T12:18:13;98817.72;;;12.02;85.56
10115;BME280;5097;43.260;27.812;2023-04-12T12:20:57;98814.22;;;12.01;83.78
10115;BME280;5097;43.260;27.812;2023-04-12T12:23:42;98836.81;;;11.49;84.05
10115;BME280;5097;43.260;27.812;2023-04-12T12:26:26;98828.88;;;11.49;87.29
10115;BME280;5097;43.260;27.812;2023-04-12T12:29:16;98824.94;;;11.66;89.55
10115;BME280;5097;43.260;27.812;2023-04-12T12:32:00;98839.81;;;12.23;85.51
10115;BME280;5097;43.260;27.812;2023-04-12T12:34:56;98834.91;;;11.73;80.15
10115;BME280;5097;43.260;27.812;2023-04-12T12:37:48;98836.34;;;11.78;82.25
10115;BME280;5097;43.260;27.812;2023-04-12T12:40:32;98830.38;;;12.31;85.11
10115;BME280;5097;43.260;27.812;2023-04-12T12:43:18;98833.47;;;12.03;81.52
10115;BME280;5097;43.260;27.812;2023-04-12T12:46:02;98832.22;;;12.19;81.91
10115;BME280;5097;43.260;27.812;2023-04-12T12:48:47;98840.78;;;11.88;82.74
10115;BME280;5097;43.260;27.812;2023-04-12T12:51:32;98824.06;;;11.88;85.46
10115;BME280;5097;43.260;27.812;2023-04-12T12:54:16;98832.00;;;11.31;85.10
10115;BME280;5097;43.260;27.812;2023-04-12T12:57:20;98836.31;;;11.32;87.15
10115;BME280;5097;43.260;27.812;2023-04-12T13:00:05;98833.88;;;11.18;83.75
10115;BME280;5097;43.260;27.812;2023-04-12T13:02:49;98842.06;;;11.26;85.00
10115;BME280;5097;43.260;27.812;2023-04-12T13:05:34;98844.28;;;10.97;83.82
10115;BME280;5097;43.260;27.812;2023-04-12T13:08:19;98833.63;;;10.74;88.29
10115;BME280;5097;43.260;27.812;2023-04-12T13:11:03;98840.38;;;11.02;86.65
10115;BME280;5097;43.260;27.812;2023-04-12T13:13:47;98833.56;;;10.87;91.48
10115;BME280;5097;43.260;27.812;2023-04-12T13:16:31;98842.00;;;10.92;90.09
10115;BME280;5097;43.260;27.812;2023-04-12T13:19:15;98825.81;;;10.61;87.94
10115;BME280;5097;43.260;27.812;2023-04-12T13:21:59;98852.94;;;10.63;86.80
10115;BME280;5097;43.260;27.812;2023-04-12T13:24:44;98861.53;;;10.54;89.51
10115;BME280;5097;43.260;27.812;2023-04-12T13:27:28;98858.16;;;10.52;89.45
10115;BME280;5097;43.260;27.812;2023-04-12T13:30:12;98845.25;;;10.60;89.08
10115;BME280;5097;43.260;27.812;2023-04-12T13:32:55;98872.41;;;10.62;90.27
10115;BME280;5097;43.260;27.812;2023-04-12T13:35:39;98870.97;;;10.45;90.50
10115;BME280;5097;43.260;27.812;2023-04-12T13:38:23;98863.72;;;10.60;92.48
10115;BME280;5097;43.260;27.812;2023-04-12T13:41:08;98867.13;;;10.62;90.18
10115;BME280;5097;43.260;27.812;2023-04-12T13:43:52;98857.44;;;10.50;91.13
10115;BME280;5097;43.260;27.812;2023-04-12T13:46:36;98875.34;;;10.57;89.83
10115;BME280;5097;43.260;27.812;2023-04-12T13:49:20;98860.31;;;10.34;88.83
10115;BME280;5097;43.260;27.812;2023-04-12T13:52:04;98873.63;;;10.69;89.33
10115;BME280;5097;43.260;27.812;2023-04-12T13:54:48;98863.06;;;10.69;90.91
10115;BME280;5097;43.260;27.812;2023-04-12T13:57:34;98875.06;;;10.73;88.98
10115;BME280;5097;43.260;27.812;2023-04-12T14:00:19;98849.84;;;10.32;88.82
10115;BME280;5097;43.260;27.812;2023-04-12T14:03:03;98885.09;;;10.57;91.95
10115;BME280;5097;43.260;27.812;2023-04-12T14:05:47;98895.19;;;10.26;94.05
10115;BME280;5097;43.260;27.812;2023-04-12T14:08:31;98909.16;;;10.02;96.60
10115;BME280;5097;43.260;27.812;2023-04-12T14:11:15;98908.44;;;9.75;97.39
10115;BME280;5097;43.260;27.812;2023-04-12T14:14:00;98905.72;;;9.50;96.69
10115;BME280;5097;43.260;27.812;2023-04-12T14:16:45;98897.69;;;9.26;95.76
10115;BME280;5097;43.260;27.812;2023-04-12T14:19:29;98908.84;;;9.17;97.38
10115;BME280;5097;43.260;27.812;2023-04-12T14:22:12;98918.97;;;9.23;98.15
10115;BME280;5097;43.260;27.812;2023-04-12T14:24:56;98925.09;;;9.23;97.17
10115;BME280;5097;43.260;27.812;2023-04-12T14:27:40;98923.09;;;9.40;96.60
10115;BME280;5097;43.260;27.812;2023-04-12T14:30:26;98915.53;;;9.61;96.44
10115;BME280;5097;43.260;27.812;2023-04-12T14:33:09;98931.47;;;9.72;98.05
10115;BME280;5097;43.260;27.812;2023-04-12T14:35:54;98924.06;;;9.52;98.63
10115;BME280;5097;43.260;27.812;2023-04-12T14:38:39;98935.22;;;9.43;98.39
10115;BME280;5097;43.260;27.812;2023-04-12T14:41:23;98932.91;;;9.51;98.73
10115;BME280;5097;43.260;27.812;2023-04-12T14:44:07;98922.41;;;9.77;97.79